Middletown, NY (10941)

6:22 AM EDT on April 19, 2015 (GMT -0400)
T/Wallkill / Middletown, NY | | Change Station
CLOSE
Current Station
Personal Weather Station
Location: Middletown, NY
Elevation: 548 ft
Nearby Weather Stations

Elev 548 ft 41.44 °N, 74.40 °W | Updated 5 minutes ago

Clear
Clear
45.6 °F
Feels Like 46 °F
N
3.0
Wind Variable Wind from NE
Gusts 11.0 mph

Today
High -- | Low -- °F
--% Chance of Precip.
Yesterday
High -- | Low -- °F
Precip. -- in
6:12 AM 7:42 PM
New Moon, 1% visible
Pressure 30.20 in
Visibility 10.0 miles
Clouds Clear
Windchill 46 °F
Dew Point 33 °F
Humidity 62%
Rainfall 0.00 in
Snow Depth Not available.
UV 0 out of 12
Pollen 11.50 out of 12
Air Quality Not available.
Flu Activity Widespread
METAR KMGJ 190954Z AUTO 04008KT 10SM CLR 07/M01 A3020 RMK AO2 SLP225 T00721006 TSNO $

More Conditions Fewer Conditions

Pressure 30.20 in
Visibility 10.0 miles
Clouds Clear
Windchill 46 °F
Dew Point 33 °F
Humidity 62%
Rainfall 0.00 in
Snow Depth Not available.
UV 0 out of 12
Pollen 11.50 out of 12
Air Quality Not available.
Flu Activity Widespread
METAR KMGJ 190954Z AUTO 04008KT 10SM CLR 07/M01 A3020 RMK AO2 SLP225 T00721006 TSNO $

More Conditions Fewer Conditions

10-Day Weather Forecast

Almanac

Astronomy

Apr. 19, 2015 Rise Set
Actual Time
Civil Twilight
Nautical Twilight
Astronomical Twilight
Moon
Length of Visible Light
Length of Day
Tomorrow will be .
, % of the Moon is Illuminated

Today's Extremes

State Highs State Lows

Community

WunderPhotos

Upload Photos

1,814,759 photos uploaded!

WunderBlogs® & News

Nearby

Air Quality

  Air Quality AQ Index Pollutant
Not available.

Snow Depth

Station Depth Elevation

Earthquake Activity

City Distance Mag. Time & Date
Minimum magnitude displayed is 2.5.

Coastal Water Temperatures

Place Temperature

Stations

Nearby Weather Stations

Station Location Temp. Windchill Dew Point Humidity Wind Precip. Elev Updated Type